OTHH Airport Information

Runway Information
Airport Frequencies
Airport Navaids
Airport Weather Information & NOTAM
ADDS - METARS form results

(0018 UTC 24 September 2021)
Data provider http://aviationweather.gov/metar/data/
 
METAR text: OTHH 240000Z AUTO VRB01KT CAVOK 29/21 Q1003 NOSIG
Conditions at: OTHH (DOHA HAMAD INTL , QA) observed 0000 UTC 24 September 2021
Temperature: 29.0°C (84°F)
Dewpoint: 21.0°C (70°F) [RH = 62%]
Pressure (altimeter): 29.62 inches Hg (1003.0 mb)
Winds: variable direction winds at 1 MPH (1 knots; 0.5 m/s)
Visibility: 6 or more miles (10+ km)
Ceiling: ceiling and visibility are OK
Clouds: unknown
Weather: no significant weather observed at this time

Forecast for: OTHH (DOHA HAMAD INTL , QA)
Text: TAF OTHH 232301Z 2400/2506 29005KT CAVOK
Forecast period: 0000 to 0900 UTC 24 September 2021
Forecast type: FROM: standard forecast or significant change
Winds: from the WNW (290 degrees) at 6 MPH (5 knots; 2.6 m/s)
Visibility: 6 or more miles (10+ km)
Ceiling: unknown
Clouds: missing
Weather: NSW  (no significant weather)
Text: BECMG 2409/2411 06006KT
Forecast period: 0900 UTC 24 September 2021 to 0600 UTC 25 September 2021
Forecast type: BECOMING: Conditions expected to become as follows by 1100 UTC 24 September 2021
Winds: from the ENE (60 degrees) at 7 MPH (6 knots; 3.1 m/s)
Visibility: 6 or more miles (10+ km)
Ceiling: unknown
Clouds: missing
Weather: NSW  (no significant weather)